Time;durP1;ratioP1;P1;durP2;ratioP2;P2;SDS_P1;SDS_P2;PMS_P1;PMS_P2;Temp;Humidity;BMP_temperature;BMP_pressure;BME280_temperature;BME280_humidity;BME280_pressure;Samples;Min_cycle;Max_cycle;Signal;HPM_P1;HPM_P2
2022/06/16 00:00:22;;;;;;;18.45;8.27;;;;;;;24.43;82.24;100635.09;5004497;28;20048;-87
2022/06/16 00:02:51;;;;;;;16.45;7.68;;;;;;;24.46;82.24;100631.91;5036731;28;20065;-87
2022/06/16 00:05:25;;;;;;;22.90;8.20;;;;;;;24.34;84.49;100640.13;5037833;28;20034;-87
2022/06/16 00:07:55;;;;;;;22.23;8.48;;;;;;;24.16;87.76;100635.78;5035868;28;20073;-87
2022/06/16 00:10:24;;;;;;;27.38;9.13;;;;;;;23.98;90.21;100636.03;5006733;28;20041;-90
2022/06/16 00:12:51;;;;;;;15.35;9.35;;;;;;;23.88;92.01;100633.19;5020148;28;20050;-90
2022/06/16 00:15:21;;;;;;;24.00;9.05;;;;;;;23.80;92.88;100633.56;5003089;28;20080;-91
2022/06/16 00:17:47;;;;;;;20.65;9.57;;;;;;;23.85;93.33;100624.72;5012465;28;20049;-90
2022/06/16 00:20:14;;;;;;;25.15;9.63;;;;;;;23.77;93.06;100617.81;5021588;28;20104;-91
2022/06/16 00:22:42;;;;;;;18.65;9.55;;;;;;;23.80;92.31;100611.91;5022667;28;20037;-90
2022/06/16 00:25:10;;;;;;;23.90;9.10;;;;;;;23.54;94.92;100612.56;4997903;28;20463;-90
2022/06/16 00:27:36;;;;;;;25.05;10.07;;;;;;;23.44;95.50;100615.09;5000938;28;20114;-91
2022/06/16 00:30:07;;;;;;;21.10;10.13;;;;;;;23.42;95.89;100617.25;5039290;28;20034;-90
2022/06/16 00:32:33;;;;;;;18.52;9.98;;;;;;;23.41;95.28;100613.72;5032522;28;20025;-89
2022/06/16 00:35:00;;;;;;;18.27;9.13;;;;;;;23.45;95.60;100614.03;5037599;28;20029;-89
2022/06/16 00:37:26;;;;;;;20.60;9.68;;;;;;;23.49;94.39;100617.91;5031418;28;20038;-91
2022/06/16 00:39:57;;;;;;;27.25;9.70;;;;;;;23.54;94.22;100612.56;5029045;28;20029;-92
2022/06/16 00:42:25;;;;;;;17.08;7.03;;;;;;;23.48;94.51;100608.16;5021101;28;20049;-89
2022/06/16 00:44:57;;;;;;;19.85;9.90;;;;;;;23.42;94.61;100603.72;5022432;28;20053;-92
2022/06/16 00:47:29;;;;;;;22.65;9.90;;;;;;;23.35;95.47;100603.84;5021653;28;20048;-93
2022/06/16 00:49:58;;;;;;;15.32;10.30;;;;;;;23.34;94.87;100596.78;5021953;28;20034;-92
2022/06/16 00:52:44;;;;;;;21.35;10.30;;;;;;;23.39;94.28;100599.59;5023367;28;20042;-93
2022/06/16 00:55:17;;;;;;;22.10;10.13;;;;;;;23.49;93.30;100598.97;4999558;28;20085;-94
2022/06/16 00:57:49;;;;;;;19.77;10.30;;;;;;;23.53;93.52;100600.13;5015195;28;20502;-91
2022/06/16 01:02:53;;;;;;;21.30;10.00;;;;;;;23.47;94.07;100601.09;5017657;28;20041;-89
2022/06/16 01:05:19;;;;;;;20.90;10.65;;;;;;;23.41;94.14;100604.78;5022360;28;20038;-93
2022/06/16 01:07:47;;;;;;;24.48;10.85;;;;;;;23.43;94.20;100616.19;5024591;28;20502;-91
2022/06/16 01:10:15;;;;;;;22.80;10.95;;;;;;;23.35;94.61;100609.25;5020002;28;20503;-92
2022/06/16 01:13:43;;;;;;;20.92;11.75;;;;;;;23.26;95.52;100618.81;5006864;28;20042;-94
2022/06/16 01:16:45;;;;;;;19.80;11.05;;;;;;;23.32;95.55;100625.13;5020866;23;20077;-92
2022/06/16 01:19:55;;;;;;;23.48;10.52;;;;;;;23.34;95.38;100628.41;5070444;22;20076;-93
2022/06/16 01:22:43;;;;;;;21.52;10.07;;;;;;;23.35;95.33;100627.34;5007294;28;20050;-93
2022/06/16 01:25:41;;;;;;;24.02;10.38;;;;;;;23.34;95.77;100628.41;5015370;28;20046;-91
2022/06/16 01:28:21;;;;;;;19.48;10.52;;;;;;;23.41;95.92;100626.41;4990849;28;20121;-91
2022/06/16 01:30:49;;;;;;;25.05;10.02;;;;;;;23.51;94.31;100623.88;5004513;28;20551;-94
2022/06/16 01:34:01;;;;;;;21.42;12.57;;;;;;;23.47;94.77;100611.91;5014130;28;20045;-92
2022/06/16 01:36:51;;;;;;;;;;;;;;;23.33;96.59;100615.97;5019697;28;20049;-92
2022/06/16 01:39:48;;;;;;;30.23;12.77;;;;;;;23.22;97.05;100616.84;5017012;28;19976;-90
2022/06/16 01:45:15;;;;;;;23.02;12.80;;;;;;;22.97;99.73;100611.75;5013145;28;20045;-89
2022/06/16 01:47:54;;;;;;;23.38;12.80;;;;;;;22.89;99.63;100604.88;5011829;28;20099;-90
2022/06/16 01:50:36;;;;;;;26.48;12.80;;;;;;;22.69;100.00;100604.47;5004602;28;20049;-90
2022/06/16 01:53:20;;;;;;;24.13;12.95;;;;;;;22.59;100.00;100593.41;5009690;28;20034;-90
2022/06/16 01:56:01;;;;;;;30.85;13.48;;;;;;;22.57;100.00;100587.44;5021613;28;20048;-89
2022/06/16 01:58:33;;;;;;;20.65;12.13;;;;;;;22.65;100.00;100592.47;5012080;28;20034;-92
2022/06/16 02:01:14;;;;;;;31.25;14.63;;;;;;;22.67;100.00;100598.47;5015854;28;20076;-92
2022/06/16 02:03:48;;;;;;;24.38;13.50;;;;;;;22.70;100.00;100583.69;5000641;28;20116;-91
2022/06/16 02:06:38;;;;;;;23.75;13.95;;;;;;;22.73;100.00;100584.03;5011964;28;20030;-90
2022/06/16 02:09:14;;;;;;;27.27;12.50;;;;;;;22.69;100.00;100576.63;5004918;28;20088;-93
2022/06/16 02:11:42;;;;;;;22.77;12.80;;;;;;;22.63;100.00;100581.09;5008898;28;20034;-91
2022/06/16 02:14:51;;;;;;;18.00;11.73;;;;;;;22.67;100.00;100578.75;5016932;23;20046;-91
2022/06/16 02:17:46;;;;;;;24.15;12.70;;;;;;;22.71;100.00;100583.41;4992877;28;20053;-89
2022/06/16 02:20:12;;;;;;;21.40;12.05;;;;;;;22.60;100.00;100584.25;4987970;28;20058;-90
2022/06/16 02:22:41;;;;;;;18.95;12.40;;;;;;;22.56;100.00;100580.41;5006055;28;20045;-93
2022/06/16 02:25:27;;;;;;;20.88;11.98;;;;;;;22.67;100.00;100579.56;5004454;28;20049;-91
2022/06/16 02:28:00;;;;;;;23.80;12.40;;;;;;;22.71;100.00;100579.91;4988371;28;20046;-90
2022/06/16 02:30:34;;;;;;;21.42;12.32;;;;;;;22.62;100.00;100582.13;4985174;28;20178;-89
2022/06/16 02:33:27;;;;;;;23.10;11.63;;;;;;;22.62;100.00;100590.25;5003220;28;20441;-92
2022/06/16 02:36:28;;;;;;;20.40;11.43;;;;;;;22.61;100.00;100581.31;5000384;28;20094;-91
2022/06/16 02:39:34;;;;;;;21.27;10.85;;;;;;;22.69;100.00;100571.22;4961674;29;20043;-92
2022/06/16 02:42:34;;;;;;;19.95;10.27;;;;;;;22.70;100.00;100570.16;4954334;29;20043;-91
2022/06/16 02:49:19;;;;;;;15.55;9.30;;;;;;;22.74;100.00;100561.31;5110139;22;20457;-91
2022/06/16 02:52:27;;;;;;;15.88;8.68;;;;;;;22.73;100.00;100567.81;4998922;28;20380;-92
2022/06/16 02:55:16;;;;;;;14.18;8.50;;;;;;;22.80;100.00;100573.91;5018165;28;20384;-92
2022/06/16 03:00:58;;;;;;;21.63;10.95;;;;;;;22.61;100.00;100580.47;3829288;23;20081;-92
2022/06/16 03:06:42;;;;;;;27.02;14.13;;;;;;;22.44;100.00;100579.56;5014321;28;20045;-90
2022/06/16 03:10:05;;;;;;;21.50;12.60;;;;;;;22.56;100.00;100583.09;5001357;28;20049;-91
2022/06/16 03:12:52;;;;;;;20.48;13.43;;;;;;;22.55;100.00;100579.56;4997638;28;20041;-91
2022/06/16 03:15:41;;;;;;;21.23;13.30;;;;;;;22.57;100.00;100582.03;4995360;28;20073;-91
2022/06/16 03:18:17;;;;;;;19.67;14.35;;;;;;;22.44;100.00;100579.56;5011533;28;20492;-89
2022/06/16 03:20:52;;;;;;;21.02;14.07;;;;;;;22.37;100.00;100576.22;5046061;23;20122;-90
2022/06/16 03:24:07;;;;;;;24.20;13.50;;;;;;;22.38;100.00;100588.63;5032066;28;20072;-89
2022/06/16 03:27:20;;;;;;;23.00;14.75;;;;;;;22.46;100.00;100588.28;4974888;29;20024;-89
2022/06/16 03:29:58;;;;;;;19.87;13.13;;;;;;;22.53;100.00;100589.81;5004794;23;20042;-90
2022/06/16 03:33:24;;;;;;;22.73;13.50;;;;;;;22.52;100.00;100587.31;4955957;28;20047;-90
2022/06/16 03:36:44;;;;;;;23.70;13.05;;;;;;;22.42;100.00;100592.50;4984262;23;20113;-90
2022/06/16 03:39:47;;;;;;;15.18;11.35;;;;;;;22.14;100.00;100577.88;5019059;23;20045;-88
2022/06/16 03:45:03;;;;;;;14.93;10.90;;;;;;;21.95;100.00;100576.34;4989759;26;20042;-90
2022/06/16 03:47:48;;;;;;;23.08;13.10;;;;;;;21.93;100.00;100583.06;5034353;28;20033;-90
2022/06/16 03:50:18;;;;;;;19.08;10.82;;;;;;;21.95;100.00;100580.94;5035932;23;20046;-88
2022/06/16 03:52:50;;;;;;;16.60;11.77;;;;;;;21.90;100.00;100584.34;5054913;23;20073;-88
2022/06/16 04:04:02;;;;;;;15.55;11.38;;;;;;;21.79;100.00;100587.81;4847403;26;20050;-89
2022/06/16 04:06:51;;;;;;;18.65;12.32;;;;;;;21.68;100.00;100583.22;4992102;28;20042;-92
2022/06/16 04:09:24;;;;;;;19.98;13.00;;;;;;;21.56;100.00;100579.72;4993895;28;20164;-90
2022/06/16 04:11:55;;;;;;;17.55;12.35;;;;;;;21.66;100.00;100588.06;4990983;28;20042;-90
2022/06/16 04:14:24;;;;;;;25.33;13.93;;;;;;;21.77;100.00;100595.34;5012926;28;20050;-89
2022/06/16 04:17:03;;;;;;;19.80;13.40;;;;;;;21.81;100.00;100596.50;5016989;28;20038;-90
2022/06/16 04:22:39;;;;;;;27.70;13.93;;;;;;;21.89;100.00;100592.63;5039558;23;20050;-87
2022/06/16 04:25:20;;;;;;;23.60;13.02;;;;;;;21.95;100.00;100592.56;5024741;28;20395;-89
2022/06/16 04:27:46;;;;;;;24.27;14.13;;;;;;;22.02;100.00;100604.06;5035330;28;20041;-87
2022/06/16 04:32:41;;;;;;;18.37;13.50;;;;;;;22.18;100.00;100602.53;5055754;23;20078;-88
2022/06/16 04:35:13;;;;;;;21.00;12.93;;;;;;;22.28;100.00;100601.91;5129545;23;20091;-89
2022/06/16 04:37:59;;;;;;;23.48;13.20;;;;;;;22.34;100.00;100612.59;5014011;28;20046;-91
2022/06/16 04:40:26;;;;;;;17.17;12.02;;;;;;;22.65;100.00;100619.47;5029162;28;20026;-90
2022/06/16 04:43:08;;;;;;;19.20;12.15;;;;;;;22.71;100.00;100617.72;4995013;28;20072;-92
2022/06/16 04:45:38;;;;;;;15.50;10.88;;;;;;;22.83;100.00;100627.47;5019092;28;20030;-91
2022/06/16 04:48:06;;;;;;;21.67;10.27;;;;;;;22.97;100.00;100623.41;5029847;28;20042;-93
2022/06/16 04:50:35;;;;;;;15.82;9.88;;;;;;;23.10;100.00;100625.81;5021636;28;20013;-93
2022/06/16 04:53:07;;;;;;;16.95;10.35;;;;;;;23.07;100.00;100623.59;5034418;28;20018;-91
2022/06/16 04:55:54;;;;;;;16.42;10.35;;;;;;;23.10;100.00;100628.50;5024142;28;20018;-91
2022/06/16 04:58:34;;;;;;;21.48;11.70;;;;;;;23.13;100.00;100638.84;5012095;28;20050;-91
2022/06/16 05:01:18;;;;;;;20.85;12.02;;;;;;;23.26;100.00;100645.03;5016865;28;20060;-91
2022/06/16 05:04:10;;;;;;;26.67;13.23;;;;;;;23.28;100.00;100653.72;5021418;28;20041;-92
2022/06/16 05:07:01;;;;;;;22.70;13.95;;;;;;;23.35;100.00;100640.88;5005887;28;20042;-93
2022/06/16 05:09:54;;;;;;;23.50;14.50;;;;;;;23.50;100.00;100633.06;5014592;28;20034;-92
2022/06/16 05:12:56;;;;;;;25.83;14.95;;;;;;;23.63;100.00;100632.78;4997054;28;20050;-91
2022/06/16 05:15:42;;;;;;;22.75;13.95;;;;;;;23.58;100.00;100635.38;5015121;28;20491;-90
2022/06/16 05:18:28;;;;;;;16.17;11.10;;;;;;;23.57;100.00;100633.72;5014273;28;20041;-89
2022/06/16 05:21:13;;;;;;;27.35;10.23;;;;;;;23.62;100.00;100628.41;5016876;28;20052;-89
2022/06/16 05:24:06;;;;;;;16.25;10.10;;;;;;;23.59;100.00;100631.63;5016706;28;20046;-87
2022/06/16 05:26:50;;;;;;;19.95;10.30;;;;;;;23.47;100.00;100636.25;5016633;28;20172;-89
2022/06/16 05:29:49;;;;;;;21.60;10.35;;;;;;;23.63;100.00;100638.19;4999499;28;20045;-90
2022/06/16 05:32:20;;;;;;;21.70;10.15;;;;;;;23.79;100.00;100642.78;5017071;28;20038;-86
2022/06/16 05:35:27;;;;;;;13.38;9.90;;;;;;;23.80;100.00;100639.00;4999035;28;20037;-92
2022/06/16 05:38:13;;;;;;;15.52;9.52;;;;;;;24.02;100.00;100639.91;5022730;28;20128;-93
2022/06/16 05:41:22;;;;;;;21.95;9.57;;;;;;;24.16;100.00;100657.47;5079005;23;20072;-93
2022/06/16 05:44:39;;;;;;;14.35;10.10;;;;;;;24.25;100.00;100654.34;5024848;28;20096;-91
2022/06/16 05:47:23;;;;;;;15.18;9.52;;;;;;;24.34;100.00;100656.38;5025920;28;20124;-91
2022/06/16 05:49:52;;;;;;;17.23;12.48;;;;;;;24.42;100.00;100661.38;5016012;28;20042;-93
2022/06/16 05:52:22;;;;;;;18.63;13.63;;;;;;;24.55;100.00;100657.50;5018927;28;20057;-88
2022/06/16 05:55:26;;;;;;;18.67;12.73;;;;;;;24.74;98.42;100664.25;4997378;28;20124;-91
2022/06/16 05:57:56;;;;;;;28.40;14.00;;;;;;;24.93;96.51;100659.34;5016721;28;20042;-92
2022/06/16 06:00:26;;;;;;;22.92;13.63;;;;;;;25.03;93.31;100660.28;5017121;28;20323;-92
2022/06/16 06:02:59;;;;;;;21.90;13.63;;;;;;;25.19;93.37;100653.13;5017582;28;20105;-92
2022/06/16 06:05:35;;;;;;;21.00;14.25;;;;;;;25.37;90.92;100660.13;4998920;28;20038;-90
2022/06/16 06:16:42;;;;;;;22.73;13.43;;;;;;;26.22;81.74;100664.72;5013718;28;20573;-92
2022/06/16 06:19:24;;;;;;;17.73;13.23;;;;;;;26.24;82.84;100676.97;5017441;28;20052;-91
2022/06/16 06:21:58;;;;;;;22.45;14.45;;;;;;;26.30;82.42;100665.03;5020070;28;20069;-93
2022/06/16 06:24:41;;;;;;;22.15;14.73;;;;;;;26.37;81.78;100664.81;5025699;28;20556;-92
2022/06/16 06:27:39;;;;;;;22.27;14.50;;;;;;;26.43;80.15;100671.91;5022414;28;20498;-91
2022/06/16 06:30:18;;;;;;;21.10;15.95;;;;;;;26.32;79.68;100673.75;4995050;28;20053;-84
2022/06/16 06:32:45;;;;;;;29.67;16.30;;;;;;;26.42;79.43;100684.69;5008721;28;20038;-81
2022/06/16 06:35:11;;;;;;;21.13;14.10;;;;;;;26.82;78.47;100678.69;5011639;28;20088;-83
2022/06/16 06:37:38;;;;;;;23.25;12.93;;;;;;;27.83;74.33;100678.97;5011047;28;20401;-85
2022/06/16 06:40:04;;;;;;;20.63;13.93;;;;;;;28.03;70.96;100678.97;5009827;28;20399;-84
2022/06/16 06:42:30;;;;;;;24.80;14.82;;;;;;;28.05;68.56;100679.50;5010396;28;20042;-84
2022/06/16 06:44:56;;;;;;;25.25;12.85;;;;;;;27.83;70.02;100678.16;4997983;28;20499;-83
2022/06/16 06:47:26;;;;;;;29.63;13.68;;;;;;;28.67;64.81;100673.72;5003175;28;20034;-83
2022/06/16 06:49:52;;;;;;;23.30;13.70;;;;;;;27.98;67.55;100665.34;5002924;28;20034;-83
2022/06/16 06:52:22;;;;;;;21.30;11.90;;;;;;;27.72;68.97;100669.16;5006021;28;20042;-82
2022/06/16 06:54:50;;;;;;;26.27;11.80;;;;;;;27.59;69.63;100664.22;5002075;28;20038;-83
2022/06/16 06:57:21;;;;;;;17.45;10.93;;;;;;;28.61;65.39;100669.34;5011505;28;20060;-87
2022/06/16 06:59:47;;;;;;;20.55;11.18;;;;;;;28.83;64.19;100676.41;5014173;28;20030;-86
2022/06/16 07:02:14;;;;;;;15.05;10.27;;;;;;;29.91;59.31;100681.78;5011831;28;20062;-86
2022/06/16 07:04:40;;;;;;;15.68;10.30;;;;;;;29.97;59.18;100686.13;5013400;28;20038;-89
2022/06/16 07:07:08;;;;;;;21.30;8.60;;;;;;;30.31;58.45;100686.06;5013097;28;20029;-86
2022/06/16 07:09:34;;;;;;;14.73;8.20;;;;;;;30.07;57.51;100691.50;5012517;28;20038;-87
2022/06/16 07:11:59;;;;;;;14.90;7.53;;;;;;;29.79;58.74;100706.75;4995298;28;20048;-84
2022/06/16 07:14:28;;;;;;;14.40;7.90;;;;;;;29.76;59.35;100691.72;5013990;28;20125;-92
2022/06/16 07:16:54;;;;;;;14.80;8.25;;;;;;;29.61;58.34;100699.22;5020949;28;20045;-91
2022/06/16 07:19:20;;;;;;;14.82;7.57;;;;;;;29.70;59.21;100702.97;5012984;28;20029;-90
2022/06/16 07:21:45;;;;;;;13.95;6.80;;;;;;;30.01;56.87;100696.19;4989550;28;20447;-91
2022/06/16 07:24:11;;;;;;;11.82;7.32;;;;;;;29.89;57.25;100684.84;5016193;28;20065;-87
2022/06/16 07:26:39;;;;;;;13.32;7.32;;;;;;;30.01;55.97;100670.78;5018232;28;20030;-91
2022/06/16 07:29:05;;;;;;;27.13;8.10;;;;;;;30.25;55.53;100672.47;4999953;28;20375;-88
2022/06/16 07:31:34;;;;;;;26.35;7.20;;;;;;;30.21;55.25;100676.88;5017779;28;20129;-87
2022/06/16 07:34:00;;;;;;;15.93;5.82;;;;;;;30.27;52.77;100674.91;5014527;28;20033;-90
2022/06/16 07:36:25;;;;;;;13.55;5.82;;;;;;;30.43;52.70;100667.38;5013764;28;20033;-89
2022/06/16 07:38:51;;;;;;;9.40;5.00;;;;;;;30.84;52.17;100684.16;5014897;28;20065;-88
2022/06/16 07:41:32;;;;;;;9.23;5.55;;;;;;;30.80;52.35;100683.91;5013102;28;20030;-88
2022/06/16 07:44:10;;;;;;;13.45;6.55;;;;;;;31.04;50.80;100672.97;5011601;28;20044;-88
2022/06/16 07:46:37;;;;;;;11.57;6.70;;;;;;;31.05;51.50;100680.91;5005778;28;20034;-86
2022/06/16 07:49:04;;;;;;;13.38;5.93;;;;;;;31.60;49.99;100673.03;5015746;28;20041;-89
2022/06/16 07:51:31;;;;;;;13.65;6.22;;;;;;;31.96;48.15;100676.00;5014556;28;20042;-87
2022/06/16 07:53:57;;;;;;;16.63;6.47;;;;;;;31.68;48.82;100677.84;5015544;28;20033;-91
2022/06/16 07:56:24;;;;;;;18.80;5.93;;;;;;;31.60;49.10;100670.28;5015901;28;20037;-87
2022/06/16 07:58:55;;;;;;;12.40;6.22;;;;;;;31.74;48.48;100665.69;5016034;28;20422;-86
2022/06/16 08:01:21;;;;;;;14.32;5.65;;;;;;;32.56;46.60;100657.63;5014468;28;20086;-86
2022/06/16 08:03:47;;;;;;;9.52;5.60;;;;;;;32.78;45.84;100656.97;5014693;28;20053;-87
2022/06/16 08:06:18;;;;;;;14.90;6.32;;;;;;;32.67;46.18;100648.13;5012990;28;20101;-91
2022/06/16 08:08:44;;;;;;;13.85;5.95;;;;;;;32.78;45.64;100650.31;5013401;28;20056;-89
2022/06/16 08:12:03;;;;;;;16.27;8.00;;;;;;;32.63;45.90;100642.41;5016624;28;20050;-87
2022/06/16 08:13:59;;;;;;;10.38;5.57;;;;;;;32.36;46.80;100645.13;5014839;28;20038;-87
2022/06/16 08:16:25;;;;;;;17.80;6.45;;;;;;;32.70;47.28;100645.56;5015743;28;20095;-88
2022/06/16 08:18:50;;;;;;;13.30;6.07;;;;;;;33.65;44.50;100654.75;5014886;28;20033;-87
2022/06/16 08:21:16;;;;;;;14.27;6.35;;;;;;;33.41;44.02;100648.72;5016306;28;20129;-88
2022/06/16 08:23:42;;;;;;;13.73;6.13;;;;;;;33.23;44.77;100645.00;5015240;28;20033;-86
2022/06/16 08:26:12;;;;;;;15.77;8.30;;;;;;;32.55;45.28;100639.53;5014704;28;20042;-88
2022/06/16 08:28:38;;;;;;;18.60;6.72;;;;;;;33.03;44.41;100632.50;5011443;28;20041;-90
2022/06/16 08:31:05;;;;;;;18.85;8.00;;;;;;;32.85;45.02;100627.94;5012230;28;20048;-88
2022/06/16 08:33:30;;;;;;;14.05;6.65;;;;;;;32.88;45.65;100627.34;4998732;28;20034;-88
2022/06/16 08:35:56;;;;;;;16.92;6.18;;;;;;;33.22;44.24;100624.94;5003897;28;20609;-88
2022/06/16 08:38:22;;;;;;;14.40;5.43;;;;;;;32.63;44.76;100617.72;5008601;28;20399;-90
2022/06/16 08:41:11;;;;;;;17.88;5.03;;;;;;;33.06;43.59;100622.81;5004877;28;20042;-89
2022/06/16 08:43:42;;;;;;;11.68;5.63;;;;;;;33.06;43.96;100615.41;5003570;28;20049;-88
2022/06/16 08:46:14;;;;;;;14.20;5.95;;;;;;;33.17;44.13;100611.34;4992331;28;20073;-88
2022/06/16 08:49:02;;;;;;;20.83;5.75;;;;;;;33.59;42.39;100611.97;5019220;28;20475;-90
2022/06/16 08:52:05;;;;;;;11.00;5.40;;;;;;;33.55;42.00;100613.72;5026402;28;20053;-90
2022/06/16 08:54:34;;;;;;;9.73;5.10;;;;;;;33.97;41.53;100607.72;5025535;23;20057;-89
2022/06/16 08:57:08;;;;;;;12.10;5.15;;;;;;;33.72;41.29;100611.13;5010273;28;20042;-90
2022/06/16 08:59:41;;;;;;;21.83;5.45;;;;;;;33.32;42.17;100606.59;5007576;28;20057;-87
2022/06/16 09:02:10;;;;;;;19.35;5.55;;;;;;;33.31;43.21;100607.75;5009440;28;20037;-89
2022/06/16 09:04:43;;;;;;;9.20;5.07;;;;;;;33.81;42.47;100600.19;5014254;28;20046;-87
2022/06/16 09:07:38;;;;;;;14.95;6.38;;;;;;;34.51;42.08;100602.94;5010307;28;20511;-82
2022/06/16 09:10:29;;;;;;;16.10;6.60;;;;;;;34.47;40.50;100601.97;4997363;28;20566;-79
2022/06/16 09:13:13;;;;;;;16.55;6.32;;;;;;;34.69;40.02;100602.72;5011097;28;20475;-81
2022/06/16 09:16:10;;;;;;;10.02;5.60;;;;;;;35.08;39.58;100599.03;5012670;28;20038;-78
2022/06/16 09:18:51;;;;;;;20.90;8.15;;;;;;;35.07;39.74;100591.88;5007799;28;20136;-85
2022/06/16 09:21:35;;;;;;;13.38;5.93;;;;;;;34.70;39.93;100587.00;5006627;28;20851;-85
2022/06/16 09:24:06;;;;;;;13.65;6.30;;;;;;;34.67;39.77;100582.94;5004411;28;21460;-87
2022/06/16 09:26:55;;;;;;;20.70;6.70;;;;;;;34.65;39.61;100587.16;5009748;28;20042;-87
2022/06/16 09:29:35;;;;;;;14.13;6.30;;;;;;;34.87;39.80;100581.50;5013497;28;20182;-85
2022/06/16 09:32:06;;;;;;;18.88;6.18;;;;;;;34.71;39.62;100577.59;5002799;28;20022;-83
2022/06/16 09:34:51;;;;;;;10.88;6.65;;;;;;;34.15;40.80;100573.69;5009082;28;20056;-85
2022/06/16 09:37:24;;;;;;;20.83;6.45;;;;;;;34.57;40.31;100582.41;5008710;28;20038;-85
2022/06/16 09:40:21;;;;;;;12.65;5.72;;;;;;;34.36;41.76;100575.88;5010173;28;20026;-85
2022/06/16 09:42:57;;;;;;;6.75;5.55;;;;;;;34.27;40.86;100576.63;5006844;28;20038;-83
2022/06/16 09:45:37;;;;;;;11.73;5.85;;;;;;;34.80;40.42;100578.44;5008166;28;20042;-86
2022/06/16 09:48:09;;;;;;;12.20;6.55;;;;;;;34.66;41.15;100572.25;5010506;28;20037;-83
2022/06/16 09:50:53;;;;;;;16.60;8.05;;;;;;;34.50;41.16;100571.06;5012941;28;20026;-82
2022/06/16 09:53:34;;;;;;;13.57;8.15;;;;;;;34.90;40.42;100569.88;5011488;28;20368;-83
2022/06/16 09:56:20;;;;;;;14.80;8.45;;;;;;;34.03;42.49;100556.13;5009225;28;20627;-84
2022/06/16 09:58:56;;;;;;;18.95;10.38;;;;;;;33.73;43.30;100555.03;5011897;28;20034;-86
2022/06/16 10:01:25;;;;;;;14.70;7.88;;;;;;;34.22;42.33;100557.53;4993306;28;20122;-85
2022/06/16 10:03:57;;;;;;;15.70;6.65;;;;;;;34.69;42.10;100553.16;5011449;28;20046;-85
2022/06/16 10:06:53;;;;;;;17.27;7.55;;;;;;;35.08;41.39;100563.22;5015187;28;20193;-86
2022/06/16 10:09:23;;;;;;;18.10;10.05;;;;;;;33.85;43.04;100559.91;5013007;28;20361;-82
2022/06/16 10:12:01;;;;;;;17.75;10.65;;;;;;;34.08;42.68;100559.53;5013791;28;20034;-83
2022/06/16 10:14:26;;;;;;;24.58;10.70;;;;;;;33.34;44.12;100571.41;5013692;28;20045;-84
2022/06/16 10:16:56;;;;;;;17.73;10.25;;;;;;;33.45;44.61;100567.25;5013965;28;20038;-82
2022/06/16 10:19:26;;;;;;;15.85;7.68;;;;;;;33.86;43.75;100567.88;5013368;28;20056;-86
2022/06/16 10:21:52;;;;;;;20.77;8.52;;;;;;;34.09;43.07;100561.19;5015755;28;20026;-84
2022/06/16 10:24:23;;;;;;;17.45;7.50;;;;;;;34.08;43.66;100559.53;5013051;28;20418;-89
2022/06/16 10:26:48;;;;;;;15.38;10.70;;;;;;;33.89;42.97;100578.22;5014216;28;20046;-86
2022/06/16 10:29:22;;;;;;;16.65;10.55;;;;;;;33.61;43.85;100583.06;5013185;28;20048;-84
2022/06/16 10:31:50;;;;;;;18.30;10.32;;;;;;;33.45;44.34;100573.56;5013840;28;20041;-85
2022/06/16 10:34:38;;;;;;;17.02;8.25;;;;;;;33.62;43.97;100595.69;5013976;28;20121;-83
2022/06/16 10:37:27;;;;;;;14.73;7.63;;;;;;;34.28;43.73;100586.53;5010200;28;20052;-85
2022/06/16 10:39:58;;;;;;;26.00;8.95;;;;;;;34.70;41.70;100600.78;5012977;28;20042;-85
2022/06/16 10:42:33;;;;;;;13.47;8.83;;;;;;;34.55;41.77;100590.16;5013009;28;20057;-86
2022/06/16 10:45:01;;;;;;;12.05;6.97;;;;;;;34.90;41.08;100597.41;5015327;28;20872;-83
2022/06/16 10:47:41;;;;;;;20.27;7.57;;;;;;;34.68;41.91;100595.56;5021258;28;20400;-84
2022/06/16 10:50:15;;;;;;;14.10;7.63;;;;;;;34.85;41.43;100600.31;5020546;28;20034;-85
2022/06/16 10:52:46;;;;;;;29.30;8.80;;;;;;;34.56;41.27;100594.56;5014179;28;20113;-85
2022/06/16 10:55:12;;;;;;;;;;;;;;;34.23;41.68;100592.19;5015014;28;20100;-86
2022/06/16 10:58:09;;;;;;;16.50;8.00;;;;;;;34.50;41.20;100599.41;5015069;28;19913;-85
2022/06/16 11:00:37;;;;;;;15.27;9.57;;;;;;;33.43;43.84;100591.50;5014120;28;20289;-84
2022/06/16 11:03:08;;;;;;;13.55;8.32;;;;;;;33.98;43.50;100595.59;5017550;28;20034;-84
2022/06/16 11:05:49;;;;;;;20.13;8.05;;;;;;;33.85;42.84;100596.50;5012627;28;20052;-86
2022/06/16 11:08:15;;;;;;;12.60;9.07;;;;;;;33.78;42.58;100590.63;5012914;28;20037;-85
2022/06/16 11:10:52;;;;;;;17.40;8.70;;;;;;;32.99;44.58;100587.56;5032488;28;20030;-87
2022/06/16 11:13:26;;;;;;;17.30;8.70;;;;;;;32.81;45.58;100584.97;5028632;28;20038;-87
2022/06/16 11:15:53;;;;;;;25.45;8.27;;;;;;;33.36;44.96;100580.13;5034332;28;20018;-88
2022/06/16 11:18:28;;;;;;;14.77;7.90;;;;;;;33.85;43.90;100584.66;5033373;28;20034;-85
2022/06/16 11:21:10;;;;;;;15.07;8.82;;;;;;;34.27;43.14;100584.91;5029812;28;20030;-86
2022/06/16 11:23:48;;;;;;;17.42;8.70;;;;;;;34.12;42.82;100577.06;5014853;28;20038;-85
2022/06/16 11:26:24;;;;;;;13.00;7.70;;;;;;;34.05;43.28;100576.69;5002802;28;20069;-86
2022/06/16 11:31:47;;;;;;;17.13;8.05;;;;;;;33.72;43.27;100578.13;4950976;29;20038;-86
2022/06/16 11:34:23;;;;;;;15.13;7.18;;;;;;;33.33;44.48;100578.00;4982781;23;20073;-82
2022/06/16 11:36:58;;;;;;;17.40;10.20;;;;;;;33.30;45.32;100573.94;5004844;28;20034;-83
2022/06/16 11:39:45;;;;;;;12.57;6.80;;;;;;;33.70;44.84;100569.41;5012685;28;20064;-85
2022/06/16 11:42:20;;;;;;;10.02;5.95;;;;;;;33.74;44.26;100567.66;5012131;28;20037;-83
2022/06/16 11:45:04;;;;;;;11.52;6.38;;;;;;;33.49;44.20;100557.25;5014248;28;20041;-86
2022/06/16 11:47:48;;;;;;;19.15;6.60;;;;;;;33.38;44.40;100550.41;5015697;28;20500;-85
2022/06/16 11:50:46;;;;;;;12.88;6.63;;;;;;;33.35;44.13;100545.53;5014171;28;20030;-87
2022/06/16 11:53:27;;;;;;;21.48;6.95;;;;;;;33.25;44.16;100546.59;4997441;28;20450;-85
2022/06/16 11:56:25;;;;;;;11.77;6.88;;;;;;;33.23;43.72;100543.34;5014808;28;20164;-90
2022/06/16 11:59:09;;;;;;;12.18;6.13;;;;;;;33.26;44.02;100529.00;5011032;28;20046;-88
2022/06/16 12:01:43;;;;;;;16.88;5.75;;;;;;;33.22;44.82;100531.53;5013164;28;20064;-85
2022/06/16 12:04:34;;;;;;;19.27;6.68;;;;;;;33.08;45.75;100529.94;4998000;28;20411;-83
2022/06/16 12:07:11;;;;;;;12.38;6.97;;;;;;;32.96;45.90;100519.53;4997017;28;20073;-83
2022/06/16 12:09:51;;;;;;;14.82;6.72;;;;;;;33.05;45.93;100503.91;4997343;28;20074;-81
2022/06/16 12:12:19;;;;;;;10.90;6.30;;;;;;;33.10;46.16;100511.25;5004033;28;20105;-83
2022/06/16 12:14:57;;;;;;;13.00;7.68;;;;;;;32.86;46.70;100511.53;5015746;28;20041;-83
2022/06/16 12:17:38;;;;;;;16.50;7.00;;;;;;;32.68;47.02;100509.75;5013556;28;20392;-82
2022/06/16 12:20:31;;;;;;;14.33;7.03;;;;;;;32.71;47.05;100503.66;5000661;28;20037;-84
2022/06/16 12:23:09;;;;;;;18.45;6.43;;;;;;;32.91;47.06;100496.88;4997597;28;20026;-81
2022/06/16 12:26:03;;;;;;;11.68;6.15;;;;;;;32.93;46.63;100502.84;4996947;28;20042;-83
2022/06/16 12:28:39;;;;;;;18.27;6.40;;;;;;;32.95;46.94;100501.41;4997768;28;20077;-82
2022/06/16 12:31:17;;;;;;;12.05;6.38;;;;;;;33.07;46.95;100498.94;4998406;28;20023;-82
2022/06/16 12:33:55;;;;;;;13.43;7.22;;;;;;;32.95;47.01;100509.66;5015652;28;20044;-83
2022/06/16 12:36:29;;;;;;;12.48;6.50;;;;;;;33.02;47.44;100504.53;5017845;28;20022;-83
2022/06/16 12:39:10;;;;;;;13.82;6.80;;;;;;;33.00;47.49;100497.75;5016836;28;20372;-83
2022/06/16 12:41:40;;;;;;;17.40;7.30;;;;;;;32.89;48.10;100499.91;5018985;28;20033;-85
2022/06/16 12:44:18;;;;;;;17.67;7.10;;;;;;;32.87;47.64;100496.69;5017502;28;20041;-92